Tina-c — 2APY2 — position and weather

sailwx.info

Track history (hours):
 
Tides and Currents Weather Stations Pressure Air Temp Water Temp Dewpoint Dewpoint Depression Visibility Wind Speed Wind Dir Waves Ship Positions

Tina-c

Last reported at 2014-Aug-12 07:12 UTC. Time now 2014-Aug-22 17:46 UTC.
Position N 36°22' W 007°42'.
Warning: this ship's position is 10 days out of date.

Length 99 m; draft 5.6 m.

Type: Cargo ship. MMSI: 235061987.

Date/timePositionNaut miles runAvg speedWind from/ knotsBaromVisibWave heightAir tempDewpointWater temp
2014-Aug-12 07:12N 36°22' W 007°42'274 7.9
2014-Aug-10 20:21N 36°27' W 002°02'7 9.3
2014-Aug-10 19:33N 36°28' W 001°53'11 9.5
2014-Aug-10 18:25N 36°30' W 001°40'26 8.9
2014-Aug-10 15:33N 36°34' W 001°08'9 9.2
2014-Aug-10 14:34N 36°35' W 000°57'9 9.1
2014-Aug-10 13:33N 36°37' W 000°46'9 9.2
2014-Aug-10 12:33N 36°38' W 000°35'10 9.0
2014-Aug-10 11:29N 36°40' W 000°23'9 9.1
2014-Aug-10 10:31N 36°41' W 000°12'9 9.1
2014-Aug-10 09:30N 36°42' W 000°00'9 9.0
2014-Aug-10 08:32N 36°44' E 000°10'9 9.4
2014-Aug-10 07:33N 36°45' E 000°22'37 9.0
2014-Aug-10 03:25N 36°51' E 001°08'18 8.2
2014-Aug-10 01:12N 36°54' E 001°30'25 8.2
2014-Aug-09 22:10N 36°58' E 002°01'8 8.6
2014-Aug-09 21:17N 36°59' E 002°10'6 8.6
2014-Aug-09 20:32N 36°60' E 002°18'9 8.9
2014-Aug-09 19:33N 37°01' E 002°29'9 9.1
2014-Aug-09 18:33N 37°03' E 002°40'12 9.0
2014-Aug-09 17:12N 37°04' E 002°55'7 9.4
2014-Aug-09 16:29N 37°05' E 003°04'10 9.1
2014-Aug-09 15:23N 37°07' E 003°16'7 8.7
2014-Aug-09 14:33N 37°07' E 003°25'17 8.4
2014-Aug-09 12:32N 37°09' E 003°46'8 8.1
2014-Aug-09 11:33N 37°09' E 003°56'8 8.1
2014-Aug-09 10:33N 37°11' E 004°06'10 8.5
2014-Aug-09 09:25N 37°12' E 004°18'8 8.6
2014-Aug-09 08:32N 37°13' E 004°28'11 8.6
2014-Aug-09 07:16N 37°14' E 004°41'7 9.8
2014-Aug-09 06:33N 37°15' E 004°50'10 9.7
2014-Aug-09 05:33N 37°16' E 005°02'8 8.3
2014-Aug-09 04:33N 37°17' E 005°13'34 8.3
2014-Aug-09 00:28N 37°21' E 005°55'8 8.5
2014-Aug-08 23:33N 37°22' E 006°05'10 9.2
2014-Aug-08 22:25N 37°23' E 006°18'8 9.0
2014-Aug-08 21:29N 37°24' E 006°28'8 8.0
2014-Aug-08 20:28N 37°25' E 006°38'28 8.7
2014-Aug-08 17:15N 37°28' E 007°13'9 8.8
2014-Aug-08 16:12N 37°29' E 007°25'140 8.4
2014-Aug-07 23:33N 37°37' E 010°21'27 8.2
2014-Aug-07 20:14N 37°31' E 010°55'14 8.1
2014-Aug-07 18:34N 37°28' E 011°11'132 8.2
2014-Aug-07 02:27N 36°27' E 013°38'17 8.9
2014-Aug-07 00:31N 36°19' E 013°57'47 5.9
2014-Aug-06 16:31N 35°53' E 014°46'0 0.0
2014-Aug-06 15:31N 35°53' E 014°45'0 0.1
2014-Aug-06 14:31N 35°53' E 014°46'0 0.0
2014-Aug-06 13:31N 35°53' E 014°46'0 0.0
2014-Aug-06 12:31N 35°53' E 014°46'0 0.0
2014-Aug-06 11:31N 35°53' E 014°46'0 0.0
2014-Aug-06 10:28N 35°53' E 014°45'0 0.0
2014-Aug-06 09:31N 35°53' E 014°45'0 0.0
2014-Aug-06 08:22N 35°53' E 014°46'1 1.1
2014-Aug-06 07:33N 35°53' E 014°47'7 7.3
2014-Aug-06 06:33N 35°53' E 014°56'  
Track history (hours):
 
Tides and Currents Weather Stations Pressure Air Temp Water Temp Dewpoint Dewpoint Depression Visibility Wind Speed Wind Dir Waves Ship Positions

Tina-c

Last reported at 2014-Aug-12 07:12 UTC. Time now 2014-Aug-22 17:46 UTC.
Position N 36°22' W 007°42'.
Warning: this ship's position is 10 days out of date.

Length 99 m; draft 5.6 m.

Type: Cargo ship. MMSI: 235061987.

Date/timePositionNaut miles runAvg speedWind from/ knotsBaromVisibWave heightAir tempDewpointWater temp
2014-Aug-12 07:12N 36°22' W 007°42'274 7.9
2014-Aug-10 20:21N 36°27' W 002°02'7 9.3
2014-Aug-10 19:33N 36°28' W 001°53'11 9.5
2014-Aug-10 18:25N 36°30' W 001°40'26 8.9
2014-Aug-10 15:33N 36°34' W 001°08'9 9.2
2014-Aug-10 14:34N 36°35' W 000°57'9 9.1
2014-Aug-10 13:33N 36°37' W 000°46'9 9.2
2014-Aug-10 12:33N 36°38' W 000°35'10 9.0
2014-Aug-10 11:29N 36°40' W 000°23'9 9.1
2014-Aug-10 10:31N 36°41' W 000°12'9 9.1
2014-Aug-10 09:30N 36°42' W 000°00'9 9.0
2014-Aug-10 08:32N 36°44' E 000°10'9 9.4
2014-Aug-10 07:33N 36°45' E 000°22'37 9.0
2014-Aug-10 03:25N 36°51' E 001°08'18 8.2
2014-Aug-10 01:12N 36°54' E 001°30'25 8.2
2014-Aug-09 22:10N 36°58' E 002°01'8 8.6
2014-Aug-09 21:17N 36°59' E 002°10'6 8.6
2014-Aug-09 20:32N 36°60' E 002°18'9 8.9
2014-Aug-09 19:33N 37°01' E 002°29'9 9.1
2014-Aug-09 18:33N 37°03' E 002°40'12 9.0
2014-Aug-09 17:12N 37°04' E 002°55'7 9.4
2014-Aug-09 16:29N 37°05' E 003°04'10 9.1
2014-Aug-09 15:23N 37°07' E 003°16'7 8.7
2014-Aug-09 14:33N 37°07' E 003°25'17 8.4
2014-Aug-09 12:32N 37°09' E 003°46'8 8.1
2014-Aug-09 11:33N 37°09' E 003°56'8 8.1
2014-Aug-09 10:33N 37°11' E 004°06'10 8.5
2014-Aug-09 09:25N 37°12' E 004°18'8 8.6
2014-Aug-09 08:32N 37°13' E 004°28'11 8.6
2014-Aug-09 07:16N 37°14' E 004°41'7 9.8
2014-Aug-09 06:33N 37°15' E 004°50'10 9.7
2014-Aug-09 05:33N 37°16' E 005°02'8 8.3
2014-Aug-09 04:33N 37°17' E 005°13'34 8.3
2014-Aug-09 00:28N 37°21' E 005°55'8 8.5
2014-Aug-08 23:33N 37°22' E 006°05'10 9.2
2014-Aug-08 22:25N 37°23' E 006°18'8 9.0
2014-Aug-08 21:29N 37°24' E 006°28'8 8.0
2014-Aug-08 20:28N 37°25' E 006°38'28 8.7
2014-Aug-08 17:15N 37°28' E 007°13'9 8.8
2014-Aug-08 16:12N 37°29' E 007°25'140 8.4
2014-Aug-07 23:33N 37°37' E 010°21'27 8.2
2014-Aug-07 20:14N 37°31' E 010°55'14 8.1
2014-Aug-07 18:34N 37°28' E 011°11'132 8.2
2014-Aug-07 02:27N 36°27' E 013°38'17 8.9
2014-Aug-07 00:31N 36°19' E 013°57'47 5.9
2014-Aug-06 16:31N 35°53' E 014°46'0 0.0
2014-Aug-06 15:31N 35°53' E 014°45'0 0.1
2014-Aug-06 14:31N 35°53' E 014°46'0 0.0
2014-Aug-06 13:31N 35°53' E 014°46'0 0.0
2014-Aug-06 12:31N 35°53' E 014°46'0 0.0
2014-Aug-06 11:31N 35°53' E 014°46'0 0.0
2014-Aug-06 10:28N 35°53' E 014°45'0 0.0
2014-Aug-06 09:31N 35°53' E 014°45'0 0.0
2014-Aug-06 08:22N 35°53' E 014°46'1 1.1
2014-Aug-06 07:33N 35°53' E 014°47'7 7.3
2014-Aug-06 06:33N 35°53' E 014°56'  

Dump ship's entire track history